Terminal Aerodrome Forecast
Issued by NWS St Louis, MO

Home | Current Version | Previous Version | Text Only | Print | Product List | Glossary On
Versions: 1 2 3 4 5 6 7 8 9 10 11 12 13 14 15 16 17 18 19 20
000
FTUS43 KLSX 150529
TAFCOU
TAF
KCOU 150529Z 1506/1606 19006KT P6SM BKN250
      TEMPO 1506/1509 4SM BR
     FM150900 20009KT 4SM BR OVC015 WS016/23045KT
     FM151400 20012KT P6SM -SHRA OVC020
     FM151600 22014G22KT P6SM -SHRA SCT030 BKN050
     FM152200 27009KT P6SM BKN050
     FM160100 32013G23KT P6SM BKN060=

USA.gov is the U.S. government's official web portal to all federal, state and local government web resources and services.